sensor_id;sensor_type;location;lat;lon;timestamp;pressure;altitude;pressure_sealevel;temperature;humidity
3150;BME280;32503;47.748;8.960;2024-01-30T00:02:16;98405.06;;;2.59;74.87
3150;BME280;32503;47.748;8.960;2024-01-30T00:04:43;98408.84;;;2.63;74.39
3150;BME280;32503;47.748;8.960;2024-01-30T00:07:10;98406.97;;;2.64;74.89
3150;BME280;32503;47.748;8.960;2024-01-30T00:09:38;98409.38;;;2.65;74.87
3150;BME280;32503;47.748;8.960;2024-01-30T00:12:06;98408.31;;;2.61;74.91
3150;BME280;32503;47.748;8.960;2024-01-30T00:14:33;98406.94;;;2.59;74.55
3150;BME280;32503;47.748;8.960;2024-01-30T00:17:02;98405.63;;;2.61;74.68
3150;BME280;32503;47.748;8.960;2024-01-30T00:19:29;98391.19;;;2.52;74.64
3150;BME280;32503;47.748;8.960;2024-01-30T00:21:58;98397.34;;;2.58;74.76
3150;BME280;32503;47.748;8.960;2024-01-30T00:24:25;98414.19;;;2.63;74.53
3150;BME280;32503;47.748;8.960;2024-01-30T00:26:52;98407.22;;;2.62;73.97
3150;BME280;32503;47.748;8.960;2024-01-30T00:29:19;98407.75;;;2.59;74.63
3150;BME280;32503;47.748;8.960;2024-01-30T00:31:48;98404.03;;;2.60;74.27
3150;BME280;32503;47.748;8.960;2024-01-30T00:34:17;98410.97;;;2.61;74.28
3150;BME280;32503;47.748;8.960;2024-01-30T00:36:44;98409.34;;;2.50;73.87
3150;BME280;32503;47.748;8.960;2024-01-30T00:39:11;98414.66;;;2.50;74.09
3150;BME280;32503;47.748;8.960;2024-01-30T00:41:38;98414.41;;;2.46;74.60
3150;BME280;32503;47.748;8.960;2024-01-30T00:44:05;98418.94;;;2.46;73.91
3150;BME280;32503;47.748;8.960;2024-01-30T00:46:32;98416.00;;;2.47;74.54
3150;BME280;32503;47.748;8.960;2024-01-30T00:48:59;98417.03;;;2.41;74.76
3150;BME280;32503;47.748;8.960;2024-01-30T00:51:27;98413.84;;;2.39;74.29
3150;BME280;32503;47.748;8.960;2024-01-30T00:53:55;98406.59;;;2.35;74.31
3150;BME280;32503;47.748;8.960;2024-01-30T00:56:22;98417.03;;;2.36;74.81
3150;BME280;32503;47.748;8.960;2024-01-30T00:58:50;98420.53;;;2.37;74.55
3150;BME280;32503;47.748;8.960;2024-01-30T01:01:17;98418.13;;;2.35;75.04
3150;BME280;32503;47.748;8.960;2024-01-30T01:03:44;98416.78;;;2.38;74.52
3150;BME280;32503;47.748;8.960;2024-01-30T01:06:11;98414.09;;;2.38;74.39
3150;BME280;32503;47.748;8.960;2024-01-30T01:08:40;98418.66;;;2.37;74.82
3150;BME280;32503;47.748;8.960;2024-01-30T01:11:07;98415.19;;;2.37;74.52
3150;BME280;32503;47.748;8.960;2024-01-30T01:13:34;98413.56;;;2.36;74.57
3150;BME280;32503;47.748;8.960;2024-01-30T01:16:01;98413.81;;;2.34;74.52
3150;BME280;32503;47.748;8.960;2024-01-30T01:18:28;98414.09;;;2.33;74.68
3150;BME280;32503;47.748;8.960;2024-01-30T01:20:55;98420.75;;;2.30;74.49
3150;BME280;32503;47.748;8.960;2024-01-30T01:23:22;98414.88;;;2.28;74.42
3150;BME280;32503;47.748;8.960;2024-01-30T01:25:50;98409.00;;;2.26;74.92
3150;BME280;32503;47.748;8.960;2024-01-30T01:28:17;98416.47;;;2.24;74.66
3150;BME280;32503;47.748;8.960;2024-01-30T01:30:44;98415.66;;;2.23;74.84
3150;BME280;32503;47.748;8.960;2024-01-30T01:33:12;98419.41;;;2.22;74.62
3150;BME280;32503;47.748;8.960;2024-01-30T01:35:39;98416.72;;;2.17;74.47
3150;BME280;32503;47.748;8.960;2024-01-30T01:38:06;98418.81;;;2.15;74.78
3150;BME280;32503;47.748;8.960;2024-01-30T01:40:36;98417.78;;;2.16;74.11
3150;BME280;32503;47.748;8.960;2024-01-30T01:43:06;98418.31;;;2.18;74.47
3150;BME280;32503;47.748;8.960;2024-01-30T01:45:33;98415.63;;;2.13;74.42
3150;BME280;32503;47.748;8.960;2024-01-30T01:48:01;98419.91;;;2.14;74.52
3150;BME280;32503;47.748;8.960;2024-01-30T01:50:28;98416.97;;;2.16;74.70
3150;BME280;32503;47.748;8.960;2024-01-30T01:52:56;98422.06;;;2.17;74.38
3150;BME280;32503;47.748;8.960;2024-01-30T01:55:23;98417.22;;;2.14;74.39
3150;BME280;32503;47.748;8.960;2024-01-30T01:57:53;98413.47;;;2.15;74.40
3150;BME280;32503;47.748;8.960;2024-01-30T02:00:22;98416.16;;;2.15;74.49
3150;BME280;32503;47.748;8.960;2024-01-30T02:02:50;98418.03;;;2.15;74.34
3150;BME280;32503;47.748;8.960;2024-01-30T02:05:17;98415.38;;;2.20;73.90
3150;BME280;32503;47.748;8.960;2024-01-30T02:07:45;98422.06;;;2.17;73.89
3150;BME280;32503;47.748;8.960;2024-01-30T02:10:12;98415.63;;;2.13;74.19
3150;BME280;32503;47.748;8.960;2024-01-30T02:12:39;98419.34;;;2.07;74.03
3150;BME280;32503;47.748;8.960;2024-01-30T02:15:07;98422.00;;;2.07;74.19
3150;BME280;32503;47.748;8.960;2024-01-30T02:17:35;98420.38;;;2.06;74.31
3150;BME280;32503;47.748;8.960;2024-01-30T02:20:03;98415.84;;;2.06;74.41
3150;BME280;32503;47.748;8.960;2024-01-30T02:22:33;98419.91;;;2.14;73.76
3150;BME280;32503;47.748;8.960;2024-01-30T02:25:01;98417.22;;;2.14;73.28
3150;BME280;32503;47.748;8.960;2024-01-30T02:27:28;98421.19;;;2.06;73.74
3150;BME280;32503;47.748;8.960;2024-01-30T02:29:55;98417.41;;;1.97;74.33
3150;BME280;32503;47.748;8.960;2024-01-30T02:32:22;98415.56;;;1.98;74.13
3150;BME280;32503;47.748;8.960;2024-01-30T02:34:49;98417.22;;;2.09;74.10
3150;BME280;32503;47.748;8.960;2024-01-30T02:37:17;98413.47;;;2.05;74.02
3150;BME280;32503;47.748;8.960;2024-01-30T02:39:45;98416.63;;;1.97;73.67
3150;BME280;32503;47.748;8.960;2024-01-30T02:42:13;98414.97;;;1.90;73.62
3150;BME280;32503;47.748;8.960;2024-01-30T02:44:40;98408.84;;;1.90;74.03
3150;BME280;32503;47.748;8.960;2024-01-30T02:47:07;98413.34;;;1.84;74.11
3150;BME280;32503;47.748;8.960;2024-01-30T02:49:34;98404.31;;;1.85;74.00
3150;BME280;32503;47.748;8.960;2024-01-30T02:52:02;98405.84;;;1.76;74.27
3150;BME280;32503;47.748;8.960;2024-01-30T02:54:29;98404.03;;;1.82;74.50
3150;BME280;32503;47.748;8.960;2024-01-30T02:56:58;98403.78;;;1.88;73.84
3150;BME280;32503;47.748;8.960;2024-01-30T02:59:25;98410.22;;;1.93;74.04
3150;BME280;32503;47.748;8.960;2024-01-30T03:01:52;98412.88;;;1.93;73.92
3150;BME280;32503;47.748;8.960;2024-01-30T03:04:19;98416.06;;;1.89;73.95
3150;BME280;32503;47.748;8.960;2024-01-30T03:06:46;98407.28;;;1.99;73.42
3150;BME280;32503;47.748;8.960;2024-01-30T03:09:16;98409.09;;;1.88;73.10
3150;BME280;32503;47.748;8.960;2024-01-30T03:11:43;98404.81;;;1.82;73.57
3150;BME280;32503;47.748;8.960;2024-01-30T03:14:11;98399.50;;;1.82;73.45
3150;BME280;32503;47.748;8.960;2024-01-30T03:16:38;98404.53;;;1.79;73.89
3150;BME280;32503;47.748;8.960;2024-01-30T03:19:06;98403.16;;;1.76;74.13
3150;BME280;32503;47.748;8.960;2024-01-30T03:21:35;98390.88;;;1.70;74.04
3150;BME280;32503;47.748;8.960;2024-01-30T03:24:02;98402.69;;;1.84;74.22
3150;BME280;32503;47.748;8.960;2024-01-30T03:26:29;98406.41;;;1.83;73.59
3150;BME280;32503;47.748;8.960;2024-01-30T03:28:56;98403.72;;;1.78;73.88
3150;BME280;32503;47.748;8.960;2024-01-30T03:31:25;98404.03;;;1.82;73.77
3150;BME280;32503;47.748;8.960;2024-01-30T03:33:52;98406.94;;;1.80;74.00
3150;BME280;32503;47.748;8.960;2024-01-30T03:36:20;98408.03;;;1.84;73.54
3150;BME280;32503;47.748;8.960;2024-01-30T03:38:47;98326.69;;;1.34;73.75
3150;BME280;32503;47.748;8.960;2024-01-30T03:41:14;98397.63;;;1.83;74.16
3150;BME280;32503;47.748;8.960;2024-01-30T03:43:41;98399.50;;;1.87;73.54
3150;BME280;32503;47.748;8.960;2024-01-30T03:46:08;98390.44;;;1.88;73.84
3150;BME280;32503;47.748;8.960;2024-01-30T03:48:36;98401.66;;;1.85;73.96
3150;BME280;32503;47.748;8.960;2024-01-30T03:51:04;98400.03;;;1.84;74.13
3150;BME280;32503;47.748;8.960;2024-01-30T03:53:31;98401.06;;;1.83;74.12
3150;BME280;32503;47.748;8.960;2024-01-30T03:55:58;98405.03;;;1.76;74.55
3150;BME280;32503;47.748;8.960;2024-01-30T03:58:25;98398.91;;;1.75;74.61
3150;BME280;32503;47.748;8.960;2024-01-30T04:00:52;98401.63;;;1.80;74.40
3150;BME280;32503;47.748;8.960;2024-01-30T04:03:19;98401.06;;;1.83;74.63
3150;BME280;32503;47.748;8.960;2024-01-30T04:05:48;98402.69;;;1.84;74.78
3150;BME280;32503;47.748;8.960;2024-01-30T04:08:15;98400.56;;;1.86;74.79
3150;BME280;32503;47.748;8.960;2024-01-30T04:10:42;98400.03;;;1.84;75.06
3150;BME280;32503;47.748;8.960;2024-01-30T04:13:09;98395.47;;;1.85;74.78
3150;BME280;32503;47.748;8.960;2024-01-30T04:15:37;98406.41;;;1.83;74.86
3150;BME280;32503;47.748;8.960;2024-01-30T04:18:04;98408.03;;;1.84;74.83
3150;BME280;32503;47.748;8.960;2024-01-30T04:20:31;98403.50;;;1.85;74.84
3150;BME280;32503;47.748;8.960;2024-01-30T04:23:00;98398.38;;;1.78;74.96
3150;BME280;32503;47.748;8.960;2024-01-30T04:25:27;98395.47;;;1.80;74.66
3150;BME280;32503;47.748;8.960;2024-01-30T04:27:54;98400.56;;;1.86;74.55
3150;BME280;32503;47.748;8.960;2024-01-30T04:30:21;98393.91;;;1.84;74.52
3150;BME280;32503;47.748;8.960;2024-01-30T04:32:48;98393.88;;;1.79;74.63
3150;BME280;32503;47.748;8.960;2024-01-30T04:35:15;98392.50;;;1.76;74.80
3150;BME280;32503;47.748;8.960;2024-01-30T04:37:45;98369.56;;;1.70;74.36
3150;BME280;32503;47.748;8.960;2024-01-30T04:40:14;98394.16;;;1.82;74.07
3150;BME280;32503;47.748;8.960;2024-01-30T04:42:41;98396.28;;;1.80;74.27
3150;BME280;32503;47.748;8.960;2024-01-30T04:45:09;98399.19;;;1.79;74.59
3150;BME280;32503;47.748;8.960;2024-01-30T04:47:36;98403.97;;;1.72;74.19
3150;BME280;32503;47.748;8.960;2024-01-30T04:50:03;98398.09;;;1.69;74.83
3150;BME280;32503;47.748;8.960;2024-01-30T04:52:31;98403.97;;;1.72;75.16
3150;BME280;32503;47.748;8.960;2024-01-30T04:54:58;98405.53;;;1.67;74.90
3150;BME280;32503;47.748;8.960;2024-01-30T04:57:27;98406.09;;;1.69;74.81
3150;BME280;32503;47.748;8.960;2024-01-30T04:59:54;98406.91;;;1.75;74.93
3150;BME280;32503;47.748;8.960;2024-01-30T05:02:21;98398.34;;;1.68;74.68
3150;BME280;32503;47.748;8.960;2024-01-30T05:04:48;98405.28;;;1.69;75.16
3150;BME280;32503;47.748;8.960;2024-01-30T05:07:15;98411.34;;;1.59;74.81
3150;BME280;32503;47.748;8.960;2024-01-30T05:09:42;98408.63;;;1.49;75.43
3150;BME280;32503;47.748;8.960;2024-01-30T05:12:09;98413.19;;;1.54;75.07
3150;BME280;32503;47.748;8.960;2024-01-30T05:14:37;98407.88;;;1.59;74.93
3150;BME280;32503;47.748;8.960;2024-01-30T05:17:04;98410.28;;;1.60;75.05
3150;BME280;32503;47.748;8.960;2024-01-30T05:19:31;98410.03;;;1.62;75.32
3150;BME280;32503;47.748;8.960;2024-01-30T05:21:58;98413.22;;;1.64;74.91
3150;BME280;32503;47.748;8.960;2024-01-30T05:24:25;98415.94;;;1.69;74.58
3150;BME280;32503;47.748;8.960;2024-01-30T05:26:52;98415.41;;;1.67;74.51
3150;BME280;32503;47.748;8.960;2024-01-30T05:29:19;98420.69;;;1.62;74.68
3150;BME280;32503;47.748;8.960;2024-01-30T05:31:48;98412.88;;;1.50;74.88
3150;BME280;32503;47.748;8.960;2024-01-30T05:34:15;98416.41;;;1.56;75.04
3150;BME280;32503;47.748;8.960;2024-01-30T05:36:42;98427.06;;;1.56;74.68
3150;BME280;32503;47.748;8.960;2024-01-30T05:39:09;98428.16;;;1.60;75.04
3150;BME280;32503;47.748;8.960;2024-01-30T05:41:36;98428.16;;;1.60;75.03
3150;BME280;32503;47.748;8.960;2024-01-30T05:44:04;98400.31;;;1.40;74.03
3150;BME280;32503;47.748;8.960;2024-01-30T05:46:31;98424.91;;;1.52;74.39
3150;BME280;32503;47.748;8.960;2024-01-30T05:48:59;98432.38;;;1.50;74.61
3150;BME280;32503;47.748;8.960;2024-01-30T05:51:26;98425.66;;;1.48;75.01
3150;BME280;32503;47.748;8.960;2024-01-30T05:53:54;98412.00;;;1.39;74.49
3150;BME280;32503;47.748;8.960;2024-01-30T05:56:21;98427.25;;;1.44;74.71
3150;BME280;32503;47.748;8.960;2024-01-30T05:58:49;98429.63;;;1.40;74.57
3150;BME280;32503;47.748;8.960;2024-01-30T06:01:16;98421.88;;;1.39;75.15
3150;BME280;32503;47.748;8.960;2024-01-30T06:03:43;98427.22;;;1.39;75.30
3150;BME280;32503;47.748;8.960;2024-01-30T06:06:12;98433.63;;;1.43;74.89
3150;BME280;32503;47.748;8.960;2024-01-30T06:08:39;98435.50;;;1.42;74.87
3150;BME280;32503;47.748;8.960;2024-01-30T06:11:10;98438.16;;;1.42;74.90
3150;BME280;32503;47.748;8.960;2024-01-30T06:13:37;98429.13;;;1.43;75.10
3150;BME280;32503;47.748;8.960;2024-01-30T06:16:04;98427.50;;;1.42;74.83
3150;BME280;32503;47.748;8.960;2024-01-30T06:18:31;98424.75;;;1.32;74.74
3150;BME280;32503;47.748;8.960;2024-01-30T06:20:58;98403.84;;;1.13;75.10
3150;BME280;32503;47.748;8.960;2024-01-30T06:23:27;98429.53;;;1.30;74.88
3150;BME280;32503;47.748;8.960;2024-01-30T06:25:54;98421.03;;;1.33;74.50
3150;BME280;32503;47.748;8.960;2024-01-30T06:28:21;98427.22;;;1.39;74.27
3150;BME280;32503;47.748;8.960;2024-01-30T06:30:48;98432.25;;;1.35;73.81
3150;BME280;32503;47.748;8.960;2024-01-30T06:33:15;98430.63;;;1.34;73.36
3150;BME280;32503;47.748;8.960;2024-01-30T06:35:44;98436.19;;;1.27;73.37
3150;BME280;32503;47.748;8.960;2024-01-30T06:38:11;98440.66;;;1.22;74.04
3150;BME280;32503;47.748;8.960;2024-01-30T06:40:40;98440.66;;;1.22;74.09
3150;BME280;32503;47.748;8.960;2024-01-30T06:43:07;98436.41;;;1.21;74.03
3150;BME280;32503;47.748;8.960;2024-01-30T06:45:35;98434.56;;;1.26;74.19
3150;BME280;32503;47.748;8.960;2024-01-30T06:48:02;98434.31;;;1.28;74.09
3150;BME280;32503;47.748;8.960;2024-01-30T06:50:30;98439.13;;;1.26;74.66
3150;BME280;32503;47.748;8.960;2024-01-30T06:52:57;98450.03;;;1.24;74.85
3150;BME280;32503;47.748;8.960;2024-01-30T06:55:24;98446.84;;;1.27;74.75
3150;BME280;32503;47.748;8.960;2024-01-30T06:57:52;98447.94;;;1.31;74.53
3150;BME280;32503;47.748;8.960;2024-01-30T07:00:19;98439.63;;;1.23;74.96
3150;BME280;32503;47.748;8.960;2024-01-30T07:02:47;98445.25;;;1.26;74.94
3150;BME280;32503;47.748;8.960;2024-01-30T07:05:14;98445.25;;;1.26;74.58
3150;BME280;32503;47.748;8.960;2024-01-30T07:07:43;98448.97;;;1.25;74.48
3150;BME280;32503;47.748;8.960;2024-01-30T07:10:10;98453.28;;;1.31;74.21
3150;BME280;32503;47.748;8.960;2024-01-30T07:12:37;98460.50;;;1.36;74.17
3150;BME280;32503;47.748;8.960;2024-01-30T07:15:06;98451.34;;;1.27;74.03
3150;BME280;32503;47.748;8.960;2024-01-30T07:17:34;98458.31;;;1.28;74.56
3150;BME280;32503;47.748;8.960;2024-01-30T07:20:02;98468.56;;;1.41;74.27
3150;BME280;32503;47.748;8.960;2024-01-30T07:22:30;98464.06;;;1.47;73.91
3150;BME280;32503;47.748;8.960;2024-01-30T07:24:57;98464.06;;;1.47;74.18
3150;BME280;32503;47.748;8.960;2024-01-30T07:27:24;98463.22;;;1.41;73.84
3150;BME280;32503;47.748;8.960;2024-01-30T07:29:51;98462.91;;;1.38;73.83
3150;BME280;32503;47.748;8.960;2024-01-30T07:32:19;98464.28;;;1.40;73.82
3150;BME280;32503;47.748;8.960;2024-01-30T07:34:46;98470.69;;;1.44;74.30
3150;BME280;32503;47.748;8.960;2024-01-30T07:37:13;98470.47;;;1.51;73.90
3150;BME280;32503;47.748;8.960;2024-01-30T07:39:41;98465.97;;;1.57;72.99
3150;BME280;32503;47.748;8.960;2024-01-30T07:42:09;98473.94;;;1.51;73.60
3150;BME280;32503;47.748;8.960;2024-01-30T07:44:36;98476.25;;;1.43;73.45
3150;BME280;32503;47.748;8.960;2024-01-30T07:47:03;98487.75;;;1.43;73.55
3150;BME280;32503;47.748;8.960;2024-01-30T07:49:33;98471.22;;;1.41;73.37
3150;BME280;32503;47.748;8.960;2024-01-30T07:52:00;98486.63;;;1.39;73.25
3150;BME280;32503;47.748;8.960;2024-01-30T07:54:27;98486.13;;;1.42;73.74
3150;BME280;32503;47.748;8.960;2024-01-30T07:56:59;98486.22;;;1.52;73.17
3150;BME280;32503;47.748;8.960;2024-01-30T07:59:26;98485.41;;;1.52;73.56
3150;BME280;32503;47.748;8.960;2024-01-30T08:01:53;98481.69;;;1.53;72.83
3150;BME280;32503;47.748;8.960;2024-01-30T08:04:20;98495.25;;;1.51;73.28
3150;BME280;32503;47.748;8.960;2024-01-30T08:06:48;98486.69;;;1.44;73.63
3150;BME280;32503;47.748;8.960;2024-01-30T08:09:15;98487.25;;;1.51;73.46
3150;BME280;32503;47.748;8.960;2024-01-30T08:11:42;98487.22;;;1.46;73.36
3150;BME280;32503;47.748;8.960;2024-01-30T08:14:09;98482.13;;;1.40;74.06
3150;BME280;32503;47.748;8.960;2024-01-30T08:16:36;98482.41;;;1.43;73.55
3150;BME280;32503;47.748;8.960;2024-01-30T08:19:03;98488.25;;;1.40;73.26
3150;BME280;32503;47.748;8.960;2024-01-30T08:21:30;98471.19;;;1.36;73.44
3150;BME280;32503;47.748;8.960;2024-01-30T08:24:03;98488.25;;;1.40;73.42
3150;BME280;32503;47.748;8.960;2024-01-30T08:26:31;98500.34;;;1.53;73.48
3150;BME280;32503;47.748;8.960;2024-01-30T08:28:58;98492.13;;;1.60;73.00
3150;BME280;32503;47.748;8.960;2024-01-30T08:31:25;98495.34;;;1.62;73.55
3150;BME280;32503;47.748;8.960;2024-01-30T08:33:52;98499.66;;;1.68;73.19
3150;BME280;32503;47.748;8.960;2024-01-30T08:36:20;98492.69;;;1.62;72.95
3150;BME280;32503;47.748;8.960;2024-01-30T08:38:48;98494.03;;;1.64;72.35
3150;BME280;32503;47.748;8.960;2024-01-30T08:41:16;98494.00;;;1.59;72.32
3150;BME280;32503;47.748;8.960;2024-01-30T08:43:45;98500.19;;;1.65;72.63
3150;BME280;32503;47.748;8.960;2024-01-30T08:46:12;98501.47;;;1.62;72.36
3150;BME280;32503;47.748;8.960;2024-01-30T08:48:39;98502.78;;;1.60;73.17
3150;BME280;32503;47.748;8.960;2024-01-30T08:51:06;98494.84;;;1.65;72.88
3150;BME280;32503;47.748;8.960;2024-01-30T08:53:35;98492.28;;;1.80;72.72
3150;BME280;32503;47.748;8.960;2024-01-30T08:56:03;98498.53;;;1.96;72.33
3150;BME280;32503;47.748;8.960;2024-01-30T08:58:31;98494.28;;;2.00;72.60
3150;BME280;32503;47.748;8.960;2024-01-30T09:00:59;98506.28;;;2.03;71.97
3150;BME280;32503;47.748;8.960;2024-01-30T09:03:26;98498.56;;;2.06;72.47
3150;BME280;32503;47.748;8.960;2024-01-30T09:05:53;98498.31;;;2.08;72.08
3150;BME280;32503;47.748;8.960;2024-01-30T09:08:20;98502.09;;;2.17;72.48
3150;BME280;32503;47.748;8.960;2024-01-30T09:10:47;98506.88;;;2.15;72.00
3150;BME280;32503;47.748;8.960;2024-01-30T09:13:15;98510.06;;;2.07;72.04
3150;BME280;32503;47.748;8.960;2024-01-30T09:15:44;98506.53;;;1.96;72.36
3150;BME280;32503;47.748;8.960;2024-01-30T09:18:11;98505.69;;;1.96;72.10
3150;BME280;32503;47.748;8.960;2024-01-30T09:20:38;98507.91;;;2.04;72.17
3150;BME280;32503;47.748;8.960;2024-01-30T09:23:05;98509.25;;;2.12;72.42
3150;BME280;32503;47.748;8.960;2024-01-30T09:25:32;98503.69;;;2.18;72.02
3150;BME280;32503;47.748;8.960;2024-01-30T09:28:00;98503.47;;;2.25;71.82
3150;BME280;32503;47.748;8.960;2024-01-30T09:30:27;98506.44;;;2.34;72.13
3150;BME280;32503;47.748;8.960;2024-01-30T09:32:55;98500.63;;;2.42;71.60
3150;BME280;32503;47.748;8.960;2024-01-30T09:35:22;98496.38;;;2.46;71.33
3150;BME280;32503;47.748;8.960;2024-01-30T09:37:49;98500.63;;;2.42;71.15
3150;BME280;32503;47.748;8.960;2024-01-30T09:40:17;98502.75;;;2.45;71.27
3150;BME280;32503;47.748;8.960;2024-01-30T09:42:47;98504.66;;;2.50;71.42
3150;BME280;32503;47.748;8.960;2024-01-30T09:45:14;98505.47;;;2.55;71.62
3150;BME280;32503;47.748;8.960;2024-01-30T09:47:44;98495.88;;;2.54;71.32
3150;BME280;32503;47.748;8.960;2024-01-30T09:50:14;98517.28;;;2.75;70.83
3150;BME280;32503;47.748;8.960;2024-01-30T09:52:43;98516.53;;;2.84;70.92
3150;BME280;32503;47.748;8.960;2024-01-30T09:55:11;98518.66;;;2.93;70.76
3150;BME280;32503;47.748;8.960;2024-01-30T09:57:38;98514.16;;;3.03;70.61
3150;BME280;32503;47.748;8.960;2024-01-30T10:00:07;98515.25;;;3.08;70.45
3150;BME280;32503;47.748;8.960;2024-01-30T10:02:34;98517.94;;;3.13;70.49
3150;BME280;32503;47.748;8.960;2024-01-30T10:05:02;98517.94;;;3.18;70.06
3150;BME280;32503;47.748;8.960;2024-01-30T10:07:31;98515.00;;;3.19;70.31
3150;BME280;32503;47.748;8.960;2024-01-30T10:09:58;98512.59;;;3.28;70.30
3150;BME280;32503;47.748;8.960;2024-01-30T10:12:27;98514.72;;;3.31;69.83
3150;BME280;32503;47.748;8.960;2024-01-30T10:14:56;98510.72;;;3.29;69.90
3150;BME280;32503;47.748;8.960;2024-01-30T10:17:25;98507.25;;;3.44;70.02
3150;BME280;32503;47.748;8.960;2024-01-30T10:19:52;98513.41;;;3.49;69.51
3150;BME280;32503;47.748;8.960;2024-01-30T10:22:19;98512.09;;;3.52;69.29
3150;BME280;32503;47.748;8.960;2024-01-30T10:24:48;98493.34;;;3.41;69.10
3150;BME280;32503;47.748;8.960;2024-01-30T10:27:16;98507.53;;;3.57;69.38
3150;BME280;32503;47.748;8.960;2024-01-30T10:29:43;98512.63;;;3.74;69.47
3150;BME280;32503;47.748;8.960;2024-01-30T10:32:10;98514.72;;;3.93;69.37
3150;BME280;32503;47.748;8.960;2024-01-30T10:34:37;98506.94;;;4.07;68.36
3150;BME280;32503;47.748;8.960;2024-01-30T10:37:08;98502.94;;;3.99;67.92
3150;BME280;32503;47.748;8.960;2024-01-30T10:39:39;98505.31;;;4.06;68.40
3150;BME280;32503;47.748;8.960;2024-01-30T10:42:12;98502.91;;;4.09;68.50
3150;BME280;32503;47.748;8.960;2024-01-30T10:44:48;98489.56;;;4.04;68.19
3150;BME280;32503;47.748;8.960;2024-01-30T10:47:28;98493.50;;;4.27;68.42
3150;BME280;32503;47.748;8.960;2024-01-30T10:49:56;98488.31;;;4.51;67.96
3150;BME280;32503;47.748;8.960;2024-01-30T10:52:24;98494.63;;;4.76;67.56
3150;BME280;32503;47.748;8.960;2024-01-30T10:54:54;98490.84;;;4.87;67.25
3150;BME280;32503;47.748;8.960;2024-01-30T10:57:24;98485.47;;;4.87;66.87
3150;BME280;32503;47.748;8.960;2024-01-30T10:59:54;98482.78;;;4.92;66.68
3150;BME280;32503;47.748;8.960;2024-01-30T11:02:22;98478.47;;;4.91;66.24
3150;BME280;32503;47.748;8.960;2024-01-30T11:04:54;98471.47;;;4.96;65.57
3150;BME280;32503;47.748;8.960;2024-01-30T11:07:25;98480.56;;;5.05;65.83
3150;BME280;32503;47.748;8.960;2024-01-30T11:09:54;98466.94;;;4.96;65.82
3150;BME280;32503;47.748;8.960;2024-01-30T11:12:28;98473.88;;;4.97;65.79
3150;BME280;32503;47.748;8.960;2024-01-30T11:15:04;98471.47;;;4.96;65.90
3150;BME280;32503;47.748;8.960;2024-01-30T11:17:45;98473.56;;;5.04;65.84
3150;BME280;32503;47.748;8.960;2024-01-30T11:20:15;98465.94;;;5.21;65.55
3150;BME280;32503;47.748;8.960;2024-01-30T11:22:44;98471.91;;;5.47;66.23
3150;BME280;32503;47.748;8.960;2024-01-30T11:25:13;98467.19;;;5.68;65.66
3150;BME280;32503;47.748;8.960;2024-01-30T11:27:42;98458.50;;;5.77;64.71
3150;BME280;32503;47.748;8.960;2024-01-30T11:30:10;98453.03;;;5.87;64.83
3150;BME280;32503;47.748;8.960;2024-01-30T11:32:37;98450.00;;;5.99;64.72
3150;BME280;32503;47.748;8.960;2024-01-30T11:35:05;98439.88;;;6.15;64.91
3150;BME280;32503;47.748;8.960;2024-01-30T11:37:37;98444.75;;;6.13;64.08
3150;BME280;32503;47.748;8.960;2024-01-30T11:40:06;98444.25;;;6.30;64.69
3150;BME280;32503;47.748;8.960;2024-01-30T11:42:34;98436.25;;;6.49;64.10
3150;BME280;32503;47.748;8.960;2024-01-30T11:45:07;98437.00;;;6.73;64.38
3150;BME280;32503;47.748;8.960;2024-01-30T11:47:35;98432.06;;;6.99;63.41
3150;BME280;32503;47.748;8.960;2024-01-30T11:50:04;98427.88;;;7.07;62.79
3150;BME280;32503;47.748;8.960;2024-01-30T11:52:33;98426.09;;;7.35;62.55
3150;BME280;32503;47.748;8.960;2024-01-30T11:55:00;98433.72;;;7.47;62.59
3150;BME280;32503;47.748;8.960;2024-01-30T11:57:28;98425.34;;;7.49;62.07
3150;BME280;32503;47.748;8.960;2024-01-30T11:59:56;98428.66;;;7.59;61.65
3150;BME280;32503;47.748;8.960;2024-01-30T12:02:24;98427.47;;;7.66;61.75
3150;BME280;32503;47.748;8.960;2024-01-30T12:04:51;98424.19;;;7.69;61.48
3150;BME280;32503;47.748;8.960;2024-01-30T12:07:18;98427.53;;;7.60;61.50
3150;BME280;32503;47.748;8.960;2024-01-30T12:09:53;98425.38;;;7.63;60.77
3150;BME280;32503;47.748;8.960;2024-01-30T12:12:22;98426.63;;;7.51;59.75
3150;BME280;32503;47.748;8.960;2024-01-30T12:14:50;98425.63;;;7.14;60.30
3150;BME280;32503;47.748;8.960;2024-01-30T12:17:27;98424.69;;;6.86;60.60
3150;BME280;32503;47.748;8.960;2024-01-30T12:20:03;98418.81;;;6.65;61.33
3150;BME280;32503;47.748;8.960;2024-01-30T12:22:35;98425.38;;;6.59;62.37
3150;BME280;32503;47.748;8.960;2024-01-30T12:25:04;98415.69;;;6.58;62.58
3150;BME280;32503;47.748;8.960;2024-01-30T12:27:31;98416.34;;;6.69;62.89
3150;BME280;32503;47.748;8.960;2024-01-30T12:29:58;98407.22;;;6.70;62.94
3150;BME280;32503;47.748;8.960;2024-01-30T12:32:27;98415.41;;;6.78;62.65
3150;BME280;32503;47.748;8.960;2024-01-30T12:34:55;98406.50;;;6.83;63.21
3150;BME280;32503;47.748;8.960;2024-01-30T12:37:23;98410.91;;;6.74;63.19
3150;BME280;32503;47.748;8.960;2024-01-30T12:39:52;98405.53;;;6.74;62.99
3150;BME280;32503;47.748;8.960;2024-01-30T12:42:20;98395.28;;;6.76;63.65
3150;BME280;32503;47.748;8.960;2024-01-30T12:44:48;98398.72;;;6.81;63.94
3150;BME280;32503;47.748;8.960;2024-01-30T12:47:15;98400.50;;;6.86;63.21
3150;BME280;32503;47.748;8.960;2024-01-30T12:49:44;98399.06;;;6.94;63.26
3150;BME280;32503;47.748;8.960;2024-01-30T12:52:12;98400.50;;;7.05;63.70
3150;BME280;32503;47.748;8.960;2024-01-30T12:54:40;98404.78;;;7.06;63.15
3150;BME280;32503;47.748;8.960;2024-01-30T12:57:07;98395.28;;;6.95;62.62
3150;BME280;32503;47.748;8.960;2024-01-30T12:59:34;98392.00;;;6.98;63.02
3150;BME280;32503;47.748;8.960;2024-01-30T13:02:02;98393.00;;;7.02;62.67
3150;BME280;32503;47.748;8.960;2024-01-30T13:04:29;98374.53;;;6.81;62.91
3150;BME280;32503;47.748;8.960;2024-01-30T13:06:57;98385.63;;;6.75;63.73
3150;BME280;32503;47.748;8.960;2024-01-30T13:09:26;98393.59;;;6.42;64.61
3150;BME280;32503;47.748;8.960;2024-01-30T13:11:53;98398.88;;;6.28;65.20
3150;BME280;32503;47.748;8.960;2024-01-30T13:14:20;98397.47;;;6.12;65.36
3150;BME280;32503;47.748;8.960;2024-01-30T13:16:47;98394.22;;;6.15;65.86
3150;BME280;32503;47.748;8.960;2024-01-30T13:19:14;98388.28;;;6.18;65.27
3150;BME280;32503;47.748;8.960;2024-01-30T13:21:41;98386.44;;;5.89;66.38
3150;BME280;32503;47.748;8.960;2024-01-30T13:24:10;98384.41;;;6.05;66.40
3150;BME280;32503;47.748;8.960;2024-01-30T13:26:37;98379.69;;;6.16;66.62